Time;durP1;ratioP1;P1;durP2;ratioP2;P2;SDS_P1;SDS_P2;PMS_P1;PMS_P2;Temp;Humidity;BMP_temperature;BMP_pressure;BME280_temperature;BME280_humidity;BME280_pressure;Samples;Min_cycle;Max_cycle;Signal;HPM_P1;HPM_P2
2022/08/06 04:02:17;;;;;;;2.30;2.10;;;20.00;99.90;;;;;;5132042;23;20517;-67
2022/08/06 04:04:46;;;;;;;2.30;2.20;;;19.90;99.90;;;;;;4976995;28;20813;-67
2022/08/06 04:07:15;;;;;;;2.10;1.67;;;20.00;99.90;;;;;;4977221;28;20458;-69
2022/08/06 04:09:43;;;;;;;2.77;2.40;;;19.90;99.90;;;;;;4976896;28;20464;-68
2022/08/06 04:12:10;;;;;;;19.10;2.30;;;19.90;99.90;;;;;;4976709;28;20487;-68
2022/08/06 04:14:37;;;;;;;2.57;2.10;;;19.90;99.90;;;;;;4977115;28;20490;-68
2022/08/06 04:17:05;;;;;;;3.93;1.90;;;19.90;99.90;;;;;;4977050;28;20459;-68
2022/08/06 04:19:34;;;;;;;3.03;2.10;;;19.90;99.90;;;;;;4977093;28;20458;-68
2022/08/06 04:22:01;;;;;;;1.90;1.73;;;19.90;99.90;;;;;;4976570;28;20482;-68
2022/08/06 04:24:27;;;;;;;3.60;2.10;;;19.80;99.90;;;;;;4976917;28;20470;-67
2022/08/06 04:26:58;;;;;;;3.33;1.93;;;19.80;99.90;;;;;;4976612;28;20976;-67
2022/08/06 04:29:25;;;;;;;3.03;1.77;;;19.70;99.90;;;;;;4976762;28;20445;-67
2022/08/06 04:31:53;;;;;;;2.73;1.80;;;19.70;99.90;;;;;;4976600;28;20853;-66
2022/08/06 04:34:24;;;;;;;2.10;1.60;;;19.70;99.90;;;;;;4976835;28;20515;-67
2022/08/06 04:36:53;;;;;;;2.37;1.80;;;19.70;99.90;;;;;;4976614;28;20447;-67
2022/08/06 04:39:22;;;;;;;1.80;1.70;;;19.70;99.90;;;;;;4976584;28;20458;-66
2022/08/06 04:41:49;;;;;;;2.00;1.90;;;19.70;99.90;;;;;;4976558;28;20482;-66
2022/08/06 04:44:17;;;;;;;3.03;1.50;;;19.80;99.90;;;;;;4977896;28;20454;-65
2022/08/06 04:46:48;;;;;;;2.43;1.97;;;19.80;99.90;;;;;;4980779;28;20461;-65
2022/08/06 04:49:15;;;;;;;1.90;1.80;;;19.80;99.90;;;;;;4981747;28;20439;-65
2022/08/06 04:51:42;;;;;;;3.77;1.90;;;19.90;99.90;;;;;;4976465;28;20489;-65
2022/08/06 04:54:10;;;;;;;2.20;1.90;;;19.90;99.90;;;;;;4977142;28;20458;-65
2022/08/06 04:56:37;;;;;;;5.60;1.80;;;19.90;99.90;;;;;;4976185;28;20455;-64
2022/08/06 04:59:05;;;;;;;4.53;2.10;;;19.80;99.90;;;;;;4976369;28;20477;-64
2022/08/06 05:01:31;;;;;;;2.57;2.03;;;19.80;99.90;;;;;;4975797;28;20573;-65
2022/08/06 05:03:58;;;;;;;2.40;2.20;;;19.70;99.90;;;;;;4976143;28;20463;-65
2022/08/06 05:06:36;;;;;;;1.93;1.83;;;19.70;99.90;;;;;;4976303;28;20462;-64
2022/08/06 05:09:14;;;;;;;2.40;2.20;;;19.70;99.90;;;;;;4976093;28;20447;-65
2022/08/06 05:11:46;;;;;;;2.27;2.17;;;19.60;99.90;;;;;;4975863;28;20573;-65
2022/08/06 05:14:19;;;;;;;3.50;2.47;;;19.70;99.90;;;;;;4975955;28;20439;-67
2022/08/06 05:16:47;;;;;;;2.30;2.10;;;19.70;99.90;;;;;;4975912;28;20447;-66
2022/08/06 05:19:20;;;;;;;2.37;2.17;;;19.70;99.90;;;;;;4975964;28;20459;-66
2022/08/06 05:21:49;;;;;;;2.50;2.30;;;19.70;99.90;;;;;;4975428;28;21021;-66
2022/08/06 05:24:16;;;;;;;2.47;2.27;;;19.80;99.90;;;;;;4975069;28;20451;-67
2022/08/06 05:26:44;;;;;;;2.27;2.03;;;19.90;99.90;;;;;;4975536;28;20454;-67
2022/08/06 05:29:11;;;;;;;2.50;2.30;;;19.90;99.90;;;;;;4975725;28;20485;-67
2022/08/06 05:31:40;;;;;;;2.13;2.03;;;19.90;99.90;;;;;;4975718;28;20487;-67
2022/08/06 05:34:10;;;;;;;3.50;2.00;;;20.00;99.90;;;;;;4976225;28;20533;-67
2022/08/06 05:36:37;;;;;;;2.90;2.57;;;20.00;99.90;;;;;;4976285;28;20439;-67
2022/08/06 05:39:05;;;;;;;2.07;1.97;;;20.10;99.90;;;;;;4975855;28;20525;-67
2022/08/06 05:41:34;;;;;;;2.17;1.97;;;20.30;99.90;;;;;;4975508;28;20479;-67
2022/08/06 05:44:03;;;;;;;3.23;2.17;;;20.40;99.90;;;;;;4975468;28;20459;-67
2022/08/06 05:46:34;;;;;;;2.40;2.20;;;20.30;99.90;;;;;;4975949;28;20459;-67
2022/08/06 05:49:06;;;;;;;2.90;2.60;;;20.30;99.90;;;;;;4975454;28;20857;-67
2022/08/06 05:51:39;;;;;;;3.13;2.23;;;20.30;99.90;;;;;;4975329;28;20486;-67
2022/08/06 05:54:12;;;;;;;2.53;2.37;;;20.40;99.90;;;;;;4975508;28;20439;-67
2022/08/06 05:56:45;;;;;;;3.80;2.27;;;20.50;99.90;;;;;;4975300;28;20443;-66
2022/08/06 05:59:19;;;;;;;2.17;1.93;;;20.60;99.90;;;;;;4975241;28;20449;-66
2022/08/06 06:01:47;;;;;;;2.17;2.07;;;20.70;99.90;;;;;;4974962;28;20529;-66
2022/08/06 06:04:15;;;;;;;3.90;2.50;;;20.80;99.90;;;;;;4975201;28;20458;-66
2022/08/06 06:06:42;;;;;;;2.67;2.17;;;20.80;99.90;;;;;;4975066;28;20458;-67
2022/08/06 06:09:09;;;;;;;2.30;2.07;;;20.90;99.90;;;;;;4975120;28;20455;-67
2022/08/06 06:11:38;;;;;;;5.90;2.40;;;21.00;99.90;;;;;;4974689;28;20479;-67
2022/08/06 06:14:06;;;;;;;2.10;2.00;;;21.10;99.90;;;;;;4975353;28;20443;-67
2022/08/06 06:16:47;;;;;;;2.60;2.40;;;21.10;99.90;;;;;;4975020;28;20458;-67
2022/08/06 06:19:20;;;;;;;2.40;2.30;;;21.20;99.90;;;;;;4975502;28;20446;-67
2022/08/06 06:22:05;;;;;;;2.73;2.53;;;21.40;99.90;;;;;;4974745;28;20471;-67
2022/08/06 06:24:36;;;;;;;2.67;2.07;;;21.50;99.90;;;;;;4975148;28;20466;-67
2022/08/06 06:27:08;;;;;;;2.67;2.57;;;21.70;99.90;;;;;;4975086;28;20439;-67
2022/08/06 06:29:41;;;;;;;1.90;1.80;;;21.90;99.90;;;;;;4975745;28;20443;-67
2022/08/06 06:32:15;;;;;;;2.43;2.23;;;22.30;99.90;;;;;;4976473;28;20489;-67
2022/08/06 06:34:52;;;;;;;2.40;1.97;;;22.70;99.90;;;;;;4975778;28;20474;-67
2022/08/06 06:37:27;;;;;;;3.90;3.00;;;23.10;99.90;;;;;;4978728;28;20449;-67
2022/08/06 06:40:06;;;;;;;3.30;2.40;;;23.60;99.90;;;;;;4978669;28;20536;-67
2022/08/06 06:42:43;;;;;;;2.47;2.27;;;23.90;99.90;;;;;;4978850;28;20480;-68
2022/08/06 06:45:14;;;;;;;2.20;2.00;;;24.20;99.90;;;;;;4978842;28;20442;-67
2022/08/06 06:47:48;;;;;;;2.37;2.10;;;24.40;99.90;;;;;;4979406;28;20442;-67
2022/08/06 06:50:21;;;;;;;6.27;2.00;;;24.60;99.90;;;;;;4978409;28;20443;-66
2022/08/06 06:52:51;;;;;;;2.50;2.10;;;24.70;99.40;;;;;;4978496;28;20477;-66
2022/08/06 06:55:24;;;;;;;1.80;1.70;;;24.80;97.80;;;;;;4978620;28;20461;-66
2022/08/06 06:57:54;;;;;;;1.83;1.63;;;24.60;97.80;;;;;;4978773;28;20449;-67
2022/08/06 07:00:22;;;;;;;9.90;2.30;;;24.70;98.30;;;;;;4978403;28;20872;-66
2022/08/06 07:02:53;;;;;;;3.77;2.00;;;24.90;97.80;;;;;;4978572;28;20447;-66
2022/08/06 07:05:21;;;;;;;2.27;2.07;;;25.10;97.10;;;;;;4978095;28;20962;-66
2022/08/06 07:07:50;;;;;;;2.10;1.90;;;25.40;96.00;;;;;;4978569;28;20497;-66
2022/08/06 07:10:20;;;;;;;1.93;1.83;;;25.70;95.10;;;;;;4977941;28;20914;-66
2022/08/06 07:12:49;;;;;;;2.90;1.80;;;25.80;94.20;;;;;;4978321;28;20467;-66
2022/08/06 07:15:17;;;;;;;3.33;3.10;;;26.30;93.10;;;;;;4978497;28;20505;-66
2022/08/06 07:17:45;;;;;;;2.37;2.17;;;26.40;92.50;;;;;;4978010;28;20815;-66
2022/08/06 07:20:17;;;;;;;3.13;2.00;;;26.50;91.60;;;;;;4978096;28;20465;-64
2022/08/06 07:22:44;;;;;;;2.03;1.87;;;26.60;92.40;;;;;;4978294;28;20446;-64
2022/08/06 07:25:14;;;;;;;2.03;1.93;;;26.60;91.90;;;;;;4977821;28;20969;-65
2022/08/06 07:27:44;;;;;;;8.60;2.27;;;26.40;92.40;;;;;;4977824;28;20443;-65
2022/08/06 07:30:13;;;;;;;3.83;1.67;;;26.60;92.30;;;;;;4977478;28;20937;-64
2022/08/06 07:32:40;;;;;;;1.77;1.67;;;26.50;91.30;;;;;;4977822;28;20478;-66
2022/08/06 07:35:09;;;;;;;2.00;1.90;;;26.30;91.70;;;;;;4978121;28;20455;-66
2022/08/06 07:37:40;;;;;;;2.53;2.33;;;25.80;91.30;;;;;;4979261;28;20505;-67
2022/08/06 07:40:11;;;;;;;1.67;1.57;;;25.80;90.80;;;;;;4980015;28;20443;-68
2022/08/06 07:42:40;;;;;;;2.17;2.07;;;25.60;91.00;;;;;;4980041;28;20502;-68
2022/08/06 07:45:09;;;;;;;3.47;1.97;;;25.40;92.10;;;;;;4978107;28;20513;-67
2022/08/06 07:47:39;;;;;;;2.77;1.90;;;25.20;91.30;;;;;;4976957;28;20454;-67
2022/08/06 07:50:10;;;;;;;2.37;1.60;;;24.70;92.20;;;;;;4977719;28;20471;-68
2022/08/06 07:52:40;;;;;;;1.90;1.80;;;24.40;92.50;;;;;;4977532;28;20463;-67
2022/08/06 07:55:10;;;;;;;2.80;2.10;;;24.00;92.90;;;;;;4977628;28;20465;-67
2022/08/06 07:57:38;;;;;;;4.27;2.60;;;23.80;93.90;;;;;;4978260;28;20455;-67
2022/08/06 08:00:06;;;;;;;6.07;2.23;;;23.80;94.20;;;;;;4977135;28;20462;-67
2022/08/06 08:02:33;;;;;;;4.80;2.40;;;23.80;94.30;;;;;;4977707;28;20966;-68
2022/08/06 08:07:47;;;;;;;5.90;2.37;;;23.40;94.90;;;;;;4977995;28;20462;-65
2022/08/06 08:10:15;;;;;;;10.90;2.57;;;23.30;97.20;;;;;;4979217;28;20465;-65
2022/08/06 08:12:44;;;;;;;3.20;2.20;;;23.20;98.80;;;;;;4979641;28;20474;-65
2022/08/06 08:15:11;;;;;;;4.20;2.30;;;23.20;98.20;;;;;;4977570;28;20455;-65
2022/08/06 08:17:37;;;;;;;2.20;2.10;;;23.30;96.40;;;;;;4977041;28;20489;-65
2022/08/06 08:20:06;;;;;;;4.67;2.50;;;23.30;96.80;;;;;;4977061;28;20447;-65
2022/08/06 08:22:33;;;;;;;2.27;1.97;;;23.40;97.40;;;;;;4976764;28;20478;-65
2022/08/06 08:25:02;;;;;;;2.80;1.93;;;23.50;96.70;;;;;;4976940;28;20462;-65
2022/08/06 08:27:28;;;;;;;2.10;2.00;;;23.50;96.30;;;;;;4976468;28;20832;-65
2022/08/06 08:29:55;;;;;;;3.30;1.90;;;23.60;95.20;;;;;;4976979;28;20454;-64
2022/08/06 08:32:22;;;;;;;4.50;1.90;;;23.70;96.30;;;;;;4976625;28;20482;-65
2022/08/06 08:34:49;;;;;;;2.40;1.60;;;24.20;95.30;;;;;;4976688;28;20554;-64
2022/08/06 08:37:16;;;;;;;4.37;2.03;;;24.60;93.90;;;;;;4976830;28;20462;-64
2022/08/06 08:39:42;;;;;;;1.70;1.60;;;24.90;92.20;;;;;;4976790;28;20454;-65
2022/08/06 08:42:18;;;;;;;4.07;1.90;;;25.00;92.80;;;;;;4976703;28;20474;-64
2022/08/06 08:44:47;;;;;;;1.80;1.70;;;25.10;92.70;;;;;;4976679;28;20449;-64
2022/08/06 08:47:15;;;;;;;3.83;2.23;;;25.20;92.60;;;;;;4976425;28;20461;-65
2022/08/06 08:49:46;;;;;;;3.97;1.83;;;25.30;91.50;;;;;;4976473;28;20455;-65
2022/08/06 08:52:15;;;;;;;2.60;2.00;;;25.40;91.60;;;;;;4976457;28;20489;-65
2022/08/06 08:54:47;;;;;;;3.70;1.53;;;25.80;91.70;;;;;;4976624;28;20462;-65
2022/08/06 08:57:16;;;;;;;7.73;4.53;;;26.30;90.10;;;;;;4976166;28;20933;-67
2022/08/06 08:59:43;;;;;;;3.93;2.40;;;26.70;89.10;;;;;;4976147;28;20509;-66
2022/08/06 09:02:13;;;;;;;3.83;2.87;;;27.10;88.20;;;;;;4975723;28;20994;-66
2022/08/06 09:04:41;;;;;;;3.53;2.20;;;27.20;85.20;;;;;;4976242;28;20450;-66
2022/08/06 09:07:10;;;;;;;3.00;2.37;;;27.00;85.80;;;;;;4976554;28;20454;-66
2022/08/06 09:09:38;;;;;;;4.63;1.93;;;26.80;84.40;;;;;;4976266;28;20490;-66
2022/08/06 09:12:07;;;;;;;2.70;2.20;;;26.90;84.80;;;;;;4975801;28;20537;-65
2022/08/06 09:14:36;;;;;;;1.90;1.80;;;27.20;82.20;;;;;;4975902;28;20462;-67
2022/08/06 09:17:03;;;;;;;1.67;1.57;;;27.60;81.60;;;;;;4975572;28;20458;-66
2022/08/06 09:19:31;;;;;;;1.60;1.50;;;28.30;81.10;;;;;;4975959;28;20455;-66
2022/08/06 09:21:59;;;;;;;1.93;1.50;;;29.30;72.90;;;;;;4975734;28;20471;-66
2022/08/06 09:24:26;;;;;;;6.00;2.03;;;30.20;72.50;;;;;;4975746;28;20466;-66
2022/08/06 09:27:04;;;;;;;3.13;1.60;;;30.90;68.10;;;;;;4975920;28;20459;-68
2022/08/06 09:29:31;;;;;;;5.87;1.70;;;31.50;68.00;;;;;;4975425;28;20942;-66
2022/08/06 09:32:00;;;;;;;2.60;1.90;;;32.00;60.30;;;;;;4975379;28;20992;-67
2022/08/06 09:34:33;;;;;;;3.17;1.83;;;32.10;58.70;;;;;;4975571;28;20505;-67
2022/08/06 09:37:00;;;;;;;2.63;1.90;;;31.90;57.70;;;;;;4975299;28;20934;-67
2022/08/06 09:39:39;;;;;;;1.93;1.40;;;31.60;58.90;;;;;;4975577;28;20462;-66
2022/08/06 09:42:06;;;;;;;1.53;1.43;;;31.80;58.50;;;;;;4975507;28;20482;-66
2022/08/06 09:44:33;;;;;;;4.87;2.83;;;32.00;58.10;;;;;;4976470;28;20463;-67
2022/08/06 09:47:01;;;;;;;3.23;1.60;;;32.60;56.90;;;;;;4975987;28;20459;-65
2022/08/06 09:49:28;;;;;;;2.20;1.80;;;32.90;55.80;;;;;;4975532;28;20541;-67
2022/08/06 09:52:16;;;;;;;1.80;1.57;;;33.00;54.50;;;;;;4975105;28;20485;-67
2022/08/06 09:54:42;;;;;;;1.60;1.50;;;33.00;55.30;;;;;;4975520;28;20445;-68
2022/08/06 09:57:09;;;;;;;1.90;1.40;;;33.00;52.80;;;;;;4975488;28;20458;-67
2022/08/06 09:59:44;;;;;;;3.30;1.50;;;32.90;53.30;;;;;;4975019;28;20482;-67
2022/08/06 10:02:17;;;;;;;2.13;1.80;;;32.70;53.30;;;;;;4975015;28;20485;-67
2022/08/06 10:04:45;;;;;;;7.20;1.73;;;32.50;54.40;;;;;;4975455;28;20459;-67
2022/08/06 10:07:12;;;;;;;1.43;1.20;;;31.60;56.30;;;;;;4975821;28;20455;-67
2022/08/06 10:09:52;;;;;;;2.80;1.50;;;30.80;54.40;;;;;;4975004;28;20961;-67
2022/08/06 10:12:20;;;;;;;3.77;1.67;;;30.50;56.30;;;;;;4974789;28;20569;-67
2022/08/06 10:14:47;;;;;;;2.10;1.50;;;30.00;56.70;;;;;;4975152;28;20513;-67
2022/08/06 10:17:17;;;;;;;2.00;1.80;;;29.70;58.60;;;;;;4975333;28;20481;-67
2022/08/06 10:19:45;;;;;;;3.83;1.57;;;29.30;58.00;;;;;;4975112;28;20463;-67
2022/08/06 10:22:13;;;;;;;2.17;1.13;;;29.10;58.80;;;;;;4975932;28;20500;-67
2022/08/06 10:24:43;;;;;;;8.63;2.07;;;28.70;59.70;;;;;;4974741;28;20454;-68
2022/08/06 10:27:11;;;;;;;2.50;1.73;;;28.60;60.10;;;;;;4974836;28;20953;-71
2022/08/06 10:29:41;;;;;;;2.63;1.30;;;28.60;60.20;;;;;;4975043;28;20455;-73
2022/08/06 10:32:14;;;;;;;1.37;1.33;;;28.80;59.20;;;;;;4974372;28;21012;-71
2022/08/06 10:34:45;;;;;;;3.07;1.73;;;28.50;58.40;;;;;;4975047;28;20443;-69
2022/08/06 10:37:14;;;;;;;12.50;2.03;;;28.20;59.60;;;;;;4975198;28;20537;-69
2022/08/06 10:39:46;;;;;;;1.80;1.70;;;27.80;59.80;;;;;;4975390;28;20962;-69
2022/08/06 10:42:15;;;;;;;10.93;1.80;;;27.70;62.80;;;;;;4974901;28;20486;-68
2022/08/06 10:44:44;;;;;;;2.33;1.97;;;27.50;63.60;;;;;;4974877;28;20498;-68
2022/08/06 10:47:12;;;;;;;2.70;1.97;;;27.50;62.40;;;;;;4974855;28;20833;-66
2022/08/06 10:49:39;;;;;;;5.83;1.70;;;27.90;59.10;;;;;;4975934;28;20458;-67
2022/08/06 10:52:07;;;;;;;2.20;1.30;;;28.70;59.20;;;;;;4976920;28;20479;-69
2022/08/06 10:54:37;;;;;;;2.17;1.50;;;29.60;59.40;;;;;;4975679;28;20450;-66
2022/08/06 10:57:05;;;;;;;3.47;2.03;;;30.70;56.20;;;;;;4976077;28;20451;-68
2022/08/06 10:59:31;;;;;;;1.60;1.50;;;31.00;55.70;;;;;;4976833;28;20514;-68
2022/08/06 11:02:05;;;;;;;2.37;1.67;;;31.10;54.90;;;;;;4975661;28;20482;-68
2022/08/06 11:04:47;;;;;;;4.30;1.73;;;30.70;53.60;;;;;;4975447;28;20841;-66
2022/08/06 11:07:50;;;;;;;1.40;1.30;;;30.30;56.60;;;;;;4976025;28;20489;-68
2022/08/06 11:10:42;;;;;;;7.10;1.63;;;30.30;56.40;;;;;;4975501;28;20461;-71
2022/08/06 11:13:15;;;;;;;4.20;3.30;;;30.80;56.80;;;;;;4974660;28;20553;-67
2022/08/06 11:15:43;;;;;;;1.83;1.70;;;31.60;54.80;;;;;;4975135;28;20450;-67
2022/08/06 11:18:11;;;;;;;1.73;1.63;;;32.10;54.00;;;;;;4974695;28;20454;-67
2022/08/06 11:20:41;;;;;;;1.80;1.60;;;32.40;53.40;;;;;;4974581;28;20478;-69
2022/08/06 11:23:30;;;;;;;2.53;1.40;;;32.30;50.90;;;;;;4977165;28;20787;-72
2022/08/06 11:25:59;;;;;;;1.70;1.60;;;31.90;52.90;;;;;;4978512;28;20451;-71
2022/08/06 11:28:58;;;;;;;1.97;1.77;;;32.10;52.20;;;;;;4978305;28;20455;-70
2022/08/06 11:31:40;;;;;;;3.27;1.73;;;31.60;51.50;;;;;;4981805;28;20475;-70
2022/08/06 11:34:13;;;;;;;2.93;2.20;;;31.20;53.20;;;;;;4983503;28;20537;-71
2022/08/06 11:36:54;;;;;;;1.90;1.77;;;30.70;54.50;;;;;;4980751;28;20439;-70
2022/08/06 11:39:24;;;;;;;1.63;1.57;;;29.80;54.50;;;;;;4977882;28;20914;-68
2022/08/06 11:42:03;;;;;;;2.77;2.13;;;29.10;55.50;;;;;;4977940;28;20478;-68
2022/08/06 11:44:31;;;;;;;2.20;2.00;;;28.60;56.20;;;;;;4977731;28;20515;-68
2022/08/06 11:47:20;;;;;;;1.93;1.83;;;28.40;58.30;;;;;;4977791;28;20482;-69
2022/08/06 11:49:50;;;;;;;2.50;2.30;;;28.40;58.60;;;;;;4974968;28;20538;-68
2022/08/06 11:52:40;;;;;;;2.60;1.83;;;28.40;57.50;;;;;;4977600;28;20470;-69
2022/08/06 11:55:10;;;;;;;2.67;2.23;;;28.50;58.10;;;;;;4977752;28;20494;-68
2022/08/06 11:57:40;;;;;;;1.90;1.80;;;28.30;57.60;;;;;;4977536;28;20465;-67
2022/08/06 12:00:13;;;;;;;1.87;1.77;;;28.80;59.20;;;;;;4977477;28;20458;-67
2022/08/06 12:02:55;;;;;;;2.93;1.90;;;29.20;57.30;;;;;;4977540;28;20435;-68
2022/08/06 12:05:47;;;;;;;2.23;2.03;;;29.60;57.10;;;;;;4977388;28;20442;-67
2022/08/06 12:08:27;;;;;;;2.20;1.97;;;29.60;54.60;;;;;;4977458;28;20795;-66
2022/08/06 12:11:34;;;;;;;2.30;2.20;;;29.60;55.20;;;;;;4977073;28;21004;-65
2022/08/06 12:14:01;;;;;;;2.20;2.10;;;29.50;55.90;;;;;;4977781;28;20823;-65
2022/08/06 12:16:37;;;;;;;3.60;1.70;;;29.40;56.60;;;;;;4977078;28;20462;-68
2022/08/06 12:19:06;;;;;;;1.80;1.70;;;29.60;56.80;;;;;;4976865;28;20442;-66
2022/08/06 12:21:33;;;;;;;2.40;1.90;;;29.50;55.00;;;;;;4977032;28;20572;-68
2022/08/06 12:24:01;;;;;;;2.07;1.70;;;29.10;55.30;;;;;;4976957;28;20502;-68
2022/08/06 12:26:33;;;;;;;2.33;1.90;;;29.00;55.60;;;;;;4976982;28;20462;-68
2022/08/06 12:29:05;;;;;;;4.63;2.00;;;28.90;56.00;;;;;;4976821;28;20449;-67
2022/08/06 12:31:34;;;;;;;2.00;1.90;;;28.90;58.60;;;;;;4976527;28;20510;-67
2022/08/06 12:34:01;;;;;;;2.57;1.87;;;28.90;56.30;;;;;;4976295;28;20533;-67
2022/08/06 12:36:30;;;;;;;1.90;1.50;;;28.80;57.80;;;;;;4976586;28;20465;-65
2022/08/06 12:38:58;;;;;;;1.90;1.70;;;28.70;54.90;;;;;;4976568;28;20463;-66
2022/08/06 12:41:35;;;;;;;1.90;1.80;;;28.60;58.10;;;;;;4976083;28;20474;-66
2022/08/06 12:44:02;;;;;;;1.87;1.77;;;28.70;57.40;;;;;;4976608;28;20439;-66
2022/08/06 12:46:28;;;;;;;1.70;1.60;;;28.80;56.70;;;;;;4976231;28;20946;-67
2022/08/06 12:48:55;;;;;;;3.37;1.37;;;29.10;57.40;;;;;;4976534;28;20865;-67
2022/08/06 12:51:22;;;;;;;5.23;1.60;;;29.50;56.90;;;;;;4976337;28;20474;-65
2022/08/06 12:53:51;;;;;;;5.10;1.60;;;29.70;55.40;;;;;;4976339;28;20478;-66
2022/08/06 12:56:19;;;;;;;2.83;1.37;;;29.90;54.00;;;;;;4976727;28;20486;-65
2022/08/06 12:58:48;;;;;;;1.60;1.50;;;30.00;53.70;;;;;;4976252;28;20458;-67
2022/08/06 13:01:17;;;;;;;1.40;1.40;;;29.90;54.20;;;;;;4975876;28;20585;-67
2022/08/06 13:03:46;;;;;;;1.87;1.50;;;29.60;53.90;;;;;;4976379;28;20969;-67
2022/08/06 13:06:16;;;;;;;1.93;1.57;;;29.30;54.50;;;;;;4976198;28;20885;-67
2022/08/06 13:08:46;;;;;;;1.40;1.40;;;29.30;54.70;;;;;;4975956;28;20442;-67
2022/08/06 13:11:13;;;;;;;1.53;1.43;;;29.20;55.20;;;;;;4976313;28;20486;-67
2022/08/06 13:13:41;;;;;;;1.30;1.20;;;29.40;53.70;;;;;;4975723;28;20820;-68
2022/08/06 13:16:11;;;;;;;1.73;1.63;;;29.60;53.20;;;;;;4975726;28;20950;-66
2022/08/06 13:18:39;;;;;;;10.73;1.93;;;29.70;52.70;;;;;;4975881;28;20466;-67
2022/08/06 13:21:17;;;;;;;2.93;1.40;;;29.70;52.90;;;;;;4975659;28;20551;-67
2022/08/06 13:23:47;;;;;;;1.63;1.53;;;29.30;52.30;;;;;;4975613;28;20929;-67
2022/08/06 13:26:16;;;;;;;1.30;1.20;;;29.40;53.30;;;;;;4975373;28;20485;-67
2022/08/06 13:29:08;;;;;;;2.03;1.77;;;29.40;52.30;;;;;;4975650;28;20270;-67
2022/08/06 13:31:37;;;;;;;1.63;1.30;;;29.50;53.70;;;;;;4975576;28;20478;-67
2022/08/06 13:34:06;;;;;;;4.40;1.33;;;29.40;52.70;;;;;;4975471;28;20877;-66
2022/08/06 13:36:36;;;;;;;2.90;1.50;;;28.90;52.70;;;;;;4975500;28;20458;-66
2022/08/06 13:39:18;;;;;;;1.60;1.50;;;28.70;53.80;;;;;;4975527;28;20458;-67
2022/08/06 13:41:45;;;;;;;1.53;1.40;;;28.40;52.70;;;;;;4975079;28;20982;-68
2022/08/06 13:44:27;;;;;;;2.77;1.47;;;28.00;55.10;;;;;;4975023;28;20929;-66
2022/08/06 13:46:56;;;;;;;2.07;1.60;;;27.90;56.70;;;;;;4974898;28;20438;-66
2022/08/06 13:49:23;;;;;;;1.60;1.50;;;27.80;54.10;;;;;;4975186;28;20945;-66
2022/08/06 13:51:50;;;;;;;1.80;1.70;;;27.80;55.10;;;;;;4975147;28;20482;-66
2022/08/06 13:54:16;;;;;;;1.20;1.17;;;27.80;56.50;;;;;;4974894;28;20961;-66
2022/08/06 13:56:43;;;;;;;1.60;1.50;;;27.80;55.30;;;;;;4974798;28;20493;-66
2022/08/06 13:59:10;;;;;;;1.70;1.60;;;27.90;56.80;;;;;;4974844;28;20461;-66
2022/08/06 14:01:37;;;;;;;1.90;1.80;;;28.00;57.30;;;;;;4974738;28;20482;-66
2022/08/06 14:04:05;;;;;;;1.60;1.33;;;28.20;57.50;;;;;;4975157;28;20451;-66
2022/08/06 14:06:33;;;;;;;1.73;1.37;;;28.40;56.40;;;;;;4975274;28;20423;-65
2022/08/06 14:09:00;;;;;;;1.57;1.47;;;28.50;54.50;;;;;;4974824;28;20458;-65
2022/08/06 14:11:27;;;;;;;2.63;2.10;;;28.40;55.00;;;;;;4974922;28;20502;-67
2022/08/06 14:13:54;;;;;;;2.67;1.63;;;28.40;55.40;;;;;;4974761;28;20525;-66
2022/08/06 14:16:21;;;;;;;3.43;1.40;;;28.50;54.60;;;;;;4976028;28;20454;-67
2022/08/06 14:18:47;;;;;;;1.20;1.20;;;28.60;53.70;;;;;;4975720;28;20938;-73
2022/08/06 14:21:15;;;;;;;1.10;0.93;;;28.70;52.00;;;;;;4975846;28;20474;-65
2022/08/06 14:23:42;;;;;;;1.30;1.20;;;28.80;52.10;;;;;;4975074;28;20451;-66
2022/08/06 14:26:10;;;;;;;6.37;1.50;;;28.80;52.10;;;;;;4975275;28;20465;-66
2022/08/06 14:28:36;;;;;;;3.33;1.40;;;28.60;51.20;;;;;;4974518;28;20464;-65
2022/08/06 14:31:03;;;;;;;1.10;1.10;;;28.50;49.50;;;;;;4974737;28;20840;-65
2022/08/06 14:33:30;;;;;;;2.50;1.10;;;28.70;52.40;;;;;;4974771;28;20482;-67
2022/08/06 14:35:57;;;;;;;1.20;1.20;;;28.80;53.50;;;;;;4974535;28;20934;-67
2022/08/06 14:38:25;;;;;;;2.70;1.27;;;28.90;54.00;;;;;;4974771;28;20454;-69
2022/08/06 14:46:21;;;;;;;4.33;0.90;;;28.80;51.80;;;;;;4974791;28;20423;-71
2022/08/06 14:48:47;;;;;;;1.77;1.40;;;28.70;52.30;;;;;;4974798;28;20461;-67
2022/08/06 14:51:15;;;;;;;3.80;1.23;;;28.70;51.40;;;;;;4974674;28;20478;-70
2022/08/06 14:53:43;;;;;;;3.80;1.33;;;28.90;50.50;;;;;;4974310;28;20846;-66
2022/08/06 14:56:10;;;;;;;2.30;1.57;;;28.90;51.70;;;;;;4974782;28;20471;-68
2022/08/06 14:58:36;;;;;;;2.43;1.17;;;29.00;50.20;;;;;;4978071;28;20957;-66
2022/08/06 15:01:03;;;;;;;3.00;1.13;;;29.10;51.00;;;;;;4978035;28;20505;-66
2022/08/06 15:03:30;;;;;;;2.33;1.27;;;29.10;49.80;;;;;;4978723;28;20462;-74
2022/08/06 15:05:57;;;;;;;3.20;0.93;;;29.20;52.30;;;;;;4978035;28;20943;-68
2022/08/06 15:08:23;;;;;;;0.87;0.80;;;29.30;51.10;;;;;;4978168;28;20500;-66
2022/08/06 15:10:51;;;;;;;1.30;1.20;;;29.40;50.80;;;;;;4978207;28;20482;-66
2022/08/06 15:13:18;;;;;;;0.80;0.80;;;29.40;49.90;;;;;;4978179;28;20457;-67
2022/08/06 15:15:45;;;;;;;3.33;1.30;;;29.10;47.90;;;;;;4977783;28;20478;-65
2022/08/06 15:18:12;;;;;;;2.53;1.00;;;28.80;51.90;;;;;;4978064;28;20857;-67
2022/08/06 15:20:39;;;;;;;0.97;0.93;;;28.80;50.90;;;;;;4978159;28;20482;-65
2022/08/06 15:23:05;;;;;;;1.57;1.43;;;28.70;50.60;;;;;;4978029;28;20466;-66
2022/08/06 15:25:32;;;;;;;1.33;1.20;;;28.90;50.90;;;;;;4979044;28;20458;-66
2022/08/06 15:28:01;;;;;;;1.13;0.93;;;28.90;48.90;;;;;;4978007;28;20455;-65
2022/08/06 15:30:28;;;;;;;2.10;1.23;;;28.90;49.60;;;;;;4978169;28;20482;-67
2022/08/06 15:32:54;;;;;;;2.73;1.10;;;29.00;49.50;;;;;;4977837;28;20454;-65
2022/08/06 15:35:21;;;;;;;1.90;1.13;;;29.10;49.80;;;;;;4977644;28;20478;-65
2022/08/06 15:37:48;;;;;;;1.90;1.27;;;29.20;50.00;;;;;;4977738;28;20834;-67
2022/08/06 15:40:15;;;;;;;2.03;1.10;;;29.20;48.60;;;;;;4977701;28;20459;-65
2022/08/06 15:42:42;;;;;;;2.47;1.20;;;28.90;48.50;;;;;;4977549;28;20478;-64
2022/08/06 15:45:13;;;;;;;2.80;1.13;;;28.80;49.00;;;;;;4977277;28;20447;-64
2022/08/06 15:47:40;;;;;;;0.90;0.90;;;28.80;49.00;;;;;;4977673;28;20471;-64
2022/08/06 15:50:07;;;;;;;1.30;0.90;;;28.80;51.00;;;;;;4977775;28;20462;-64
2022/08/06 15:52:35;;;;;;;2.47;1.20;;;28.90;47.70;;;;;;4977246;28;20475;-64
2022/08/06 15:55:02;;;;;;;3.20;1.40;;;28.80;49.00;;;;;;4977278;28;20481;-64
2022/08/06 15:57:29;;;;;;;1.37;1.27;;;28.70;48.00;;;;;;4977316;28;20462;-65
2022/08/06 15:59:56;;;;;;;5.30;1.50;;;28.60;47.90;;;;;;4977433;28;20454;-67
2022/08/06 16:02:25;;;;;;;7.60;7.10;;;28.60;49.00;;;;;;4976957;28;20486;-66
2022/08/06 16:04:51;;;;;;;15.83;14.63;;;28.60;48.70;;;;;;4977902;28;20459;-70
2022/08/06 16:07:18;;;;;;;1.30;1.20;;;28.60;49.50;;;;;;4977447;28;20458;-66
2022/08/06 16:09:45;;;;;;;4.57;1.87;;;28.60;48.10;;;;;;4977337;28;20454;-65
2022/08/06 16:12:12;;;;;;;0.93;0.93;;;28.70;49.50;;;;;;4977135;28;20894;-69
2022/08/06 16:14:38;;;;;;;18.10;16.70;;;28.50;47.40;;;;;;4977109;28;20483;-63
2022/08/06 16:17:06;;;;;;;6.17;1.70;;;28.40;49.40;;;;;;4977014;28;20461;-65
2022/08/06 16:19:34;;;;;;;2.73;1.10;;;28.40;48.90;;;;;;4976923;28;20482;-65
2022/08/06 16:22:00;;;;;;;1.40;1.37;;;28.40;48.30;;;;;;4976904;28;20478;-64
2022/08/06 16:24:27;;;;;;;6.20;1.77;;;28.20;47.70;;;;;;4976667;28;20835;-64
2022/08/06 16:26:54;;;;;;;5.37;2.70;;;28.00;48.20;;;;;;4976582;28;20465;-64
2022/08/06 16:29:21;;;;;;;2.33;2.00;;;27.90;50.30;;;;;;4976723;28;20463;-63
2022/08/06 16:31:49;;;;;;;2.60;1.73;;;27.90;50.50;;;;;;4976668;28;20474;-65
2022/08/06 16:34:16;;;;;;;1.10;1.00;;;27.90;49.30;;;;;;4976326;28;20478;-67
2022/08/06 16:36:44;;;;;;;3.43;1.07;;;27.90;48.50;;;;;;4976345;28;20462;-68
2022/08/06 16:39:10;;;;;;;6.07;5.60;;;27.90;47.90;;;;;;4976260;28;20487;-65
2022/08/06 16:41:37;;;;;;;0.90;0.90;;;27.90;47.80;;;;;;4976511;28;20478;-73
2022/08/06 16:44:04;;;;;;;0.73;0.70;;;27.80;48.10;;;;;;4976356;28;20459;-71
2022/08/06 16:46:31;;;;;;;1.23;1.13;;;27.70;48.00;;;;;;4976433;28;20828;-65
2022/08/06 16:48:57;;;;;;;4.63;1.80;;;27.50;48.20;;;;;;4976401;28;20892;-69
2022/08/06 16:51:26;;;;;;;9.07;5.90;;;27.40;49.90;;;;;;4976367;28;20530;-67
2022/08/06 16:53:54;;;;;;;1.93;1.70;;;27.30;49.90;;;;;;4976382;28;20455;-66
2022/08/06 16:56:21;;;;;;;4.00;3.70;;;27.20;50.20;;;;;;4976882;28;20576;-70
2022/08/06 16:58:49;;;;;;;5.70;3.00;;;27.20;50.70;;;;;;4976091;28;20943;-67
2022/08/06 17:01:16;;;;;;;8.13;6.10;;;27.20;49.10;;;;;;4976154;28;20518;-69
2022/08/06 17:03:42;;;;;;;4.77;3.83;;;27.10;50.60;;;;;;4976195;28;20510;-67
2022/08/06 17:06:09;;;;;;;2.83;2.63;;;27.00;51.20;;;;;;4975979;28;20462;-66
2022/08/06 17:08:36;;;;;;;10.10;9.33;;;27.10;51.10;;;;;;4976277;28;20517;-69